Time;durP1;ratioP1;P1;durP2;ratioP2;P2;SDS_P1;SDS_P2;PMS_P1;PMS_P2;Temp;Humidity;BMP_temperature;BMP_pressure;BME280_temperature;BME280_humidity;BME280_pressure;Samples;Min_cycle;Max_cycle;Signal;HPM_P1;HPM_P2
2023/10/22 00:01:49;;;;;;;81.10;77.90;;;;;;;19.82;58.86;97633.16;5062438;27;102898;-67
2023/10/22 00:04:17;;;;;;;92.50;88.90;;;;;;;19.84;57.60;97636.44;5040701;27;103919;-66
2023/10/22 00:06:47;;;;;;;105.93;102.00;;;;;;;19.98;57.19;97635.53;5060172;27;103200;-67
2023/10/22 00:09:15;;;;;;;111.50;107.50;;;;;;;19.99;56.87;97642.53;5059155;27;104070;-67
2023/10/22 00:11:45;;;;;;;101.17;97.47;;;;;;;20.03;56.81;97647.31;5060202;27;104100;-67
2023/10/22 00:14:13;;;;;;;106.88;102.97;;;;;;;19.95;56.56;97647.47;5059283;27;103277;-67
2023/10/22 00:16:41;;;;;;;105.03;101.25;;;;;;;19.93;56.56;97654.84;5057360;27;103166;-67
2023/10/22 00:19:09;;;;;;;100.70;97.10;;;;;;;19.89;56.47;97658.97;5059609;27;102754;-67
2023/10/22 00:21:37;;;;;;;87.63;84.33;;;;;;;19.67;57.87;97665.38;5055746;27;103584;-67
2023/10/22 00:24:06;;;;;;;76.23;73.17;;;;;;;19.37;58.56;97669.19;5059311;27;103270;-67
2023/10/22 00:26:34;;;;;;;91.07;87.68;;;;;;;19.83;58.61;97658.91;5057029;27;103122;-68
2023/10/22 00:29:03;;;;;;;89.10;85.55;;;;;;;19.85;58.24;97663.03;5058194;27;102731;-67
2023/10/22 00:31:31;;;;;;;100.93;97.23;;;;;;;19.99;57.72;97662.13;5039735;27;102740;-67
2023/10/22 00:33:59;;;;;;;99.63;96.03;;;;;;;20.09;57.09;97659.94;5036301;27;104293;-67
2023/10/22 00:36:28;;;;;;;106.95;103.15;;;;;;;20.05;56.83;97666.72;5040211;27;104189;-67
2023/10/22 00:38:56;;;;;;;98.18;94.60;;;;;;;20.00;56.81;97665.63;5039297;27;102742;-67
2023/10/22 00:41:24;;;;;;;90.75;87.18;;;;;;;19.76;56.81;97656.16;5039898;27;103722;-67
2023/10/22 00:43:52;;;;;;;71.35;68.53;;;;;;;19.52;58.35;97664.59;5055894;27;103852;-67
2023/10/22 00:46:23;;;;;;;36.35;34.70;;;;;;;18.59;63.29;97664.53;5054796;27;103219;-67
2023/10/22 00:48:53;;;;;;;36.45;34.80;;;;;;;18.28;65.54;97671.88;5039693;27;102762;-67
2023/10/22 00:51:21;;;;;;;36.17;34.47;;;;;;;18.45;64.45;97668.03;5037241;27;103031;-67
2023/10/22 00:53:50;;;;;;;35.03;33.53;;;;;;;18.98;63.40;97681.09;5038550;27;104339;-67
2023/10/22 00:56:20;;;;;;;34.67;33.17;;;;;;;18.22;65.32;97673.44;5034635;27;104197;-67
2023/10/22 00:58:48;;;;;;;35.97;34.38;;;;;;;18.50;65.24;97679.00;5039083;27;102759;-67
2023/10/22 01:01:17;;;;;;;41.47;39.67;;;;;;;18.70;63.54;97682.78;5037733;27;104492;-67
2023/10/22 01:03:47;;;;;;;37.00;35.42;;;;;;;18.62;64.90;97682.91;5038175;27;104155;-67
2023/10/22 01:06:15;;;;;;;30.10;28.85;;;;;;;18.19;67.36;97686.38;5056499;27;103137;-67
2023/10/22 01:08:44;;;;;;;34.88;33.42;;;;;;;18.47;65.93;97688.22;5038348;27;103164;-67
2023/10/22 01:11:13;;;;;;;36.20;34.70;;;;;;;18.61;64.14;97697.28;5037704;27;103997;-67
2023/10/22 01:13:41;;;;;;;35.45;33.85;;;;;;;18.50;64.10;97692.38;5055880;27;103695;-67
2023/10/22 01:16:09;;;;;;;52.37;50.37;;;;;;;19.15;62.66;97686.22;5030145;27;104443;-67
2023/10/22 01:18:37;;;;;;;41.17;39.40;;;;;;;18.69;62.86;97691.84;5037105;27;104740;-67
2023/10/22 01:21:07;;;;;;;43.08;41.28;;;;;;;18.76;63.49;97691.91;5071896;27;102820;-67
2023/10/22 01:23:39;;;;;;;52.38;50.33;;;;;;;19.09;61.60;97693.16;5057224;27;104107;-67
2023/10/22 01:26:08;;;;;;;66.00;63.42;;;;;;;19.15;60.54;97696.91;5039247;27;104311;-66
2023/10/22 01:28:37;;;;;;;52.60;50.45;;;;;;;18.99;61.06;97706.84;5056665;27;102754;-67
2023/10/22 01:31:08;;;;;;;37.15;35.72;;;;;;;18.85;62.36;97701.50;5035745;27;102722;-67
2023/10/22 01:33:37;;;;;;;61.28;58.97;;;;;;;19.10;61.43;97703.69;5036506;27;104025;-67
2023/10/22 01:36:05;;;;;;;69.93;67.38;;;;;;;19.51;59.79;97695.91;5036784;27;103960;-66
2023/10/22 01:38:33;;;;;;;81.63;78.63;;;;;;;19.73;58.19;97690.56;5037543;27;102593;-67
2023/10/22 01:41:06;;;;;;;74.65;71.95;;;;;;;19.68;58.59;97689.28;5056596;27;102742;-67
2023/10/22 01:43:34;;;;;;;82.05;79.13;;;;;;;19.71;57.77;97693.44;5043372;27;104341;-67
2023/10/22 01:46:02;;;;;;;83.97;80.97;;;;;;;19.65;57.68;97684.31;5036352;27;103346;-67
2023/10/22 01:48:30;;;;;;;72.40;69.70;;;;;;;19.42;58.00;97694.41;5042568;27;103115;-67
2023/10/22 01:50:58;;;;;;;81.57;78.63;;;;;;;19.60;57.86;97689.41;5041352;27;104050;-67
2023/10/22 01:53:26;;;;;;;61.35;59.00;;;;;;;19.31;58.18;97696.72;5059425;27;103895;-67
2023/10/22 01:55:54;;;;;;;52.38;50.28;;;;;;;18.80;60.09;97703.94;5041149;27;104436;-68
2023/10/22 01:58:24;;;;;;;56.22;54.13;;;;;;;19.14;59.95;97700.63;5041058;27;102668;-67
2023/10/22 02:01:02;;;;;;;47.43;45.43;;;;;;;18.77;60.51;97710.47;5040754;27;103164;-67
2023/10/22 02:03:33;;;;;;;39.42;37.85;;;;;;;18.79;61.26;97708.44;5059115;27;103222;-67
2023/10/22 02:06:03;;;;;;;49.03;47.13;;;;;;;18.88;60.99;97707.34;5055272;27;104049;-67
2023/10/22 02:08:31;;;;;;;54.47;52.47;;;;;;;19.16;59.96;97703.94;5039025;27;102783;-67
2023/10/22 02:10:59;;;;;;;53.78;51.72;;;;;;;19.14;59.72;97714.03;5040828;27;103918;-67
2023/10/22 02:13:28;;;;;;;49.78;47.88;;;;;;;18.89;60.02;97708.97;5039377;27;103454;-67
2023/10/22 02:15:56;;;;;;;43.20;41.50;;;;;;;18.89;60.77;97713.50;5038981;27;103514;-67
2023/10/22 02:18:24;;;;;;;33.30;31.93;;;;;;;17.89;64.02;97709.53;5040154;27;102657;-67
2023/10/22 02:20:55;;;;;;;32.72;31.38;;;;;;;17.98;63.69;97724.47;5059867;27;104004;-67
2023/10/22 02:23:24;;;;;;;32.78;31.38;;;;;;;17.85;64.23;97719.72;5042265;27;104199;-67
2023/10/22 02:25:52;;;;;;;32.47;31.08;;;;;;;18.01;64.26;97715.25;5041270;27;103249;-67
2023/10/22 02:28:20;;;;;;;29.55;28.45;;;;;;;18.14;63.69;97712.78;5041285;27;102712;-67
2023/10/22 02:30:50;;;;;;;27.95;26.67;;;;;;;17.44;66.01;97723.69;5043510;27;102714;-67
2023/10/22 02:33:18;;;;;;;30.00;28.75;;;;;;;17.86;64.50;97721.41;5056263;27;103301;-67
2023/10/22 02:35:47;;;;;;;43.20;41.50;;;;;;;18.41;62.26;97725.56;5056496;27;103242;-67
2023/10/22 02:38:17;;;;;;;42.72;41.03;;;;;;;18.59;61.08;97731.41;5039865;27;102773;-66
2023/10/22 02:40:48;;;;;;;46.77;44.97;;;;;;;18.60;60.80;97724.22;5038365;27;102747;-66
2023/10/22 02:43:17;;;;;;;30.30;29.00;;;;;;;18.04;62.82;97728.25;5055659;27;104135;-67
2023/10/22 02:45:53;;;;;;;33.17;31.75;;;;;;;18.06;62.17;97734.25;5040327;27;102947;-67
2023/10/22 02:48:23;;;;;;;39.00;37.45;;;;;;;18.19;61.91;97726.47;5040809;27;102741;-67
2023/10/22 02:50:51;;;;;;;41.20;39.50;;;;;;;18.10;62.01;97735.56;5041211;27;104206;-67
2023/10/22 02:53:19;;;;;;;46.05;44.25;;;;;;;18.44;61.02;97730.56;5039863;27;104095;-67
2023/10/22 02:55:47;;;;;;;45.47;43.58;;;;;;;18.25;61.35;97736.41;5056114;27;103226;-67
2023/10/22 02:58:15;;;;;;;45.92;44.13;;;;;;;18.46;60.92;97745.41;5040260;27;102743;-67
2023/10/22 03:00:43;;;;;;;45.28;43.55;;;;;;;18.24;61.36;97740.13;5060775;27;103804;-67
2023/10/22 03:03:14;;;;;;;45.47;43.67;;;;;;;18.11;62.07;97750.56;5055894;27;104454;-67
2023/10/22 03:05:42;;;;;;;44.53;42.83;;;;;;;18.49;61.10;97749.59;5060328;27;103353;-68
2023/10/22 03:08:10;;;;;;;43.70;42.00;;;;;;;18.23;60.96;97751.81;5039731;27;102858;-67
2023/10/22 03:10:38;;;;;;;50.63;48.70;;;;;;;18.34;60.61;97757.53;5039675;27;104020;-67
2023/10/22 03:13:06;;;;;;;46.63;44.83;;;;;;;18.47;60.71;97756.91;5038487;27;104333;-68
2023/10/22 03:15:37;;;;;;;54.77;52.77;;;;;;;18.63;60.40;97764.81;5043373;27;104177;-67
2023/10/22 03:18:07;;;;;;;56.37;54.07;;;;;;;18.59;59.05;97776.03;5039787;27;103178;-67
2023/10/22 03:20:36;;;;;;;48.63;46.83;;;;;;;18.65;59.88;97778.81;5058586;27;103884;-67
2023/10/22 03:23:06;;;;;;;49.13;47.27;;;;;;;18.43;60.87;97783.19;5039297;27;105197;-67
2023/10/22 03:25:34;;;;;;;40.38;38.78;;;;;;;18.18;61.88;97783.59;5039783;27;103946;-67
2023/10/22 03:28:03;;;;;;;47.45;45.75;;;;;;;18.56;61.03;97782.59;5041879;27;102671;-67
2023/10/22 03:30:31;;;;;;;52.40;50.40;;;;;;;18.65;60.00;97786.84;5039912;27;102724;-67
2023/10/22 03:32:59;;;;;;;49.65;47.75;;;;;;;18.22;60.79;97799.09;5060751;27;103946;-67
2023/10/22 03:35:27;;;;;;;38.60;37.10;;;;;;;18.01;62.70;97790.09;5059358;27;103214;-67
2023/10/22 03:37:58;;;;;;;45.25;43.45;;;;;;;18.14;62.00;97787.63;5061547;27;102685;-67
2023/10/22 03:40:27;;;;;;;46.95;45.22;;;;;;;18.31;61.78;97797.16;5041299;27;102749;-67
2023/10/22 03:42:55;;;;;;;44.75;43.13;;;;;;;18.14;61.54;97792.97;5059314;27;103281;-67
2023/10/22 03:45:24;;;;;;;47.35;45.47;;;;;;;18.15;61.20;97789.31;5059953;27;103258;-67
2023/10/22 03:47:54;;;;;;;54.80;52.77;;;;;;;18.50;60.46;97788.66;5041352;27;102958;-67
2023/10/22 03:50:22;;;;;;;55.97;53.85;;;;;;;18.74;59.31;97800.97;5057381;27;102769;-67
2023/10/22 03:52:50;;;;;;;45.55;43.65;;;;;;;18.11;61.20;97794.16;5056216;27;103722;-67
2023/10/22 03:55:21;;;;;;;48.42;46.63;;;;;;;17.90;62.57;97792.19;5057330;27;103298;-67
2023/10/22 03:57:49;;;;;;;52.85;50.80;;;;;;;18.20;61.30;97794.94;5053967;27;103038;-67
2023/10/22 04:00:20;;;;;;;42.20;40.50;;;;;;;17.84;63.06;97795.56;5058343;27;104093;-68
2023/10/22 04:02:48;;;;;;;49.40;47.40;;;;;;;17.80;61.93;97799.59;5058833;27;103735;-68
2023/10/22 04:05:16;;;;;;;48.93;47.10;;;;;;;18.28;60.40;97802.88;5053370;27;103061;-68
2023/10/22 04:07:44;;;;;;;60.88;58.60;;;;;;;18.77;58.85;97812.16;5055889;27;102741;-68
2023/10/22 04:14:33;;;;;;;66.05;63.65;;;;;;;18.84;58.27;97806.88;5055922;27;103119;-66
2023/10/22 04:17:01;;;;;;;71.65;68.97;;;;;;;19.00;57.63;97802.16;5054101;27;103262;-68
2023/10/22 04:19:29;;;;;;;74.03;71.28;;;;;;;19.03;56.80;97809.03;5040535;27;103015;-67
2023/10/22 04:21:57;;;;;;;61.38;59.08;;;;;;;18.94;57.14;97813.63;5063052;27;103860;-67
2023/10/22 04:24:25;;;;;;;53.92;51.72;;;;;;;18.48;58.52;97807.56;5057258;27;104066;-67
2023/10/22 04:26:53;;;;;;;50.17;48.17;;;;;;;18.09;60.06;97811.41;5055508;27;103335;-67
2023/10/22 04:29:21;;;;;;;51.53;49.33;;;;;;;18.32;59.51;97812.22;5045347;27;102719;-68
2023/10/22 04:31:51;;;;;;;63.90;61.40;;;;;;;18.33;58.36;97809.34;5041356;27;102961;-67
2023/10/22 04:34:19;;;;;;;45.83;44.00;;;;;;;17.91;60.17;97814.34;5057297;27;104281;-68
2023/10/22 04:36:47;;;;;;;45.88;44.17;;;;;;;17.67;61.66;97820.72;5056611;27;103069;-68
2023/10/22 04:39:15;;;;;;;50.83;48.92;;;;;;;18.27;59.98;97825.28;5061665;27;102698;-67
2023/10/22 04:41:43;;;;;;;44.90;43.08;;;;;;;18.49;59.38;97821.78;5063103;27;102696;-68
2023/10/22 04:44:11;;;;;;;55.78;53.67;;;;;;;18.71;58.40;97828.09;5058365;27;104043;-67
2023/10/22 04:46:39;;;;;;;57.47;55.28;;;;;;;18.77;57.95;97828.19;5055902;27;103233;-67
2023/10/22 04:54:00;;;;;;;64.82;62.22;;;;;;;18.76;57.94;97826.53;5057327;27;102665;-67
2023/10/22 04:56:28;;;;;;;62.10;59.80;;;;;;;18.97;57.33;97840.03;5056945;27;104482;-67
2023/10/22 04:58:56;;;;;;;47.50;45.70;;;;;;;18.37;58.93;97848.09;5058784;27;103394;-68
2023/10/22 05:01:24;;;;;;;56.60;54.50;;;;;;;18.69;58.38;97851.53;5057900;27;102825;-67
2023/10/22 05:03:52;;;;;;;59.97;57.77;;;;;;;18.66;58.29;97851.88;5058838;27;103010;-67
2023/10/22 05:06:21;;;;;;;68.38;65.78;;;;;;;18.92;57.20;97852.28;5058072;27;103874;-67
2023/10/22 05:08:49;;;;;;;71.25;68.55;;;;;;;19.03;56.50;97855.31;5041239;27;103168;-67
2023/10/22 05:11:18;;;;;;;75.80;73.05;;;;;;;19.11;55.93;97847.19;5057645;27;102637;-66
2023/10/22 05:13:47;;;;;;;61.30;58.97;;;;;;;18.95;56.64;97858.09;5040660;27;102765;-67
2023/10/22 05:16:15;;;;;;;68.57;65.90;;;;;;;18.91;56.68;97856.81;5058974;27;103828;-67
2023/10/22 05:18:43;;;;;;;67.35;64.80;;;;;;;19.02;56.20;97852.84;5038190;27;103220;-67
2023/10/22 05:21:11;;;;;;;67.17;64.47;;;;;;;18.82;55.88;97863.25;5043149;27;103329;-67
2023/10/22 05:23:39;;;;;;;65.03;62.33;;;;;;;18.80;56.92;97857.28;5060912;27;102996;-68
2023/10/22 05:26:09;;;;;;;70.93;68.05;;;;;;;18.94;56.25;97856.44;5064685;27;103939;-67
2023/10/22 05:28:39;;;;;;;55.08;52.75;;;;;;;18.01;58.23;97867.59;5064061;27;103208;-67
2023/10/22 05:31:15;;;;;;;51.03;48.72;;;;;;;18.37;58.45;97865.97;5049962;27;102687;-67
2023/10/22 05:33:43;;;;;;;48.00;46.15;;;;;;;18.02;59.80;97863.91;5059125;27;102664;-67
2023/10/22 05:36:16;;;;;;;55.45;53.35;;;;;;;18.41;58.40;97864.63;5040985;27;104225;-67
2023/10/22 05:38:44;;;;;;;52.47;50.43;;;;;;;18.31;58.13;97872.03;5062313;27;103071;-67
2023/10/22 05:41:18;;;;;;;51.28;49.30;;;;;;;18.16;58.29;97879.19;5060449;27;102691;-68
2023/10/22 05:43:48;;;;;;;56.13;53.93;;;;;;;18.27;58.28;97865.41;5062471;27;103834;-67
2023/10/22 05:46:16;;;;;;;49.97;47.88;;;;;;;17.88;58.74;97877.00;5061999;27;103996;-67
2023/10/22 05:48:44;;;;;;;46.88;45.13;;;;;;;17.96;59.52;97887.63;5059083;27;102704;-67
2023/10/22 05:51:12;;;;;;;48.27;46.37;;;;;;;17.91;59.14;97886.50;5039324;27;103024;-61
2023/10/22 05:53:40;;;;;;;51.90;49.80;;;;;;;17.95;58.49;97890.50;5043116;27;103289;-61
2023/10/22 05:56:08;;;;;;;47.08;45.22;;;;;;;18.11;58.56;97887.72;5039960;27;104199;-61
2023/10/22 05:58:36;;;;;;;55.38;53.25;;;;;;;18.20;57.57;97893.84;5054763;27;103262;-60
2023/10/22 06:01:06;;;;;;;61.25;58.95;;;;;;;18.44;57.71;97901.69;5061027;27;103268;-61
2023/10/22 06:03:34;;;;;;;64.45;62.10;;;;;;;18.68;56.96;97904.19;5029630;27;103036;-61
2023/10/22 06:06:03;;;;;;;48.88;46.90;;;;;;;18.12;58.63;97907.25;5054804;27;104101;-61
2023/10/22 06:08:32;;;;;;;62.60;60.28;;;;;;;18.60;56.90;97906.94;5060749;27;102895;-61
2023/10/22 06:15:24;;;;;;;47.45;45.58;;;;;;;18.09;58.66;97915.63;5048829;27;102762;-61
2023/10/22 06:17:54;;;;;;;56.75;54.65;;;;;;;18.35;57.73;97916.13;5056365;27;103371;-61
2023/10/22 06:20:22;;;;;;;52.78;50.63;;;;;;;17.92;58.07;97923.75;5054711;27;103402;-62
2023/10/22 06:22:50;;;;;;;66.88;64.22;;;;;;;18.64;56.30;97923.47;5037795;27;102695;-65
2023/10/22 06:25:19;;;;;;;70.60;67.90;;;;;;;18.68;56.69;97932.78;5042382;27;104292;-66
2023/10/22 06:27:47;;;;;;;67.10;64.57;;;;;;;18.51;56.63;97940.09;5038548;27;103999;-66
2023/10/22 06:30:15;;;;;;;61.20;58.90;;;;;;;18.55;56.69;97943.25;5053824;27;103113;-73
2023/10/22 06:32:44;;;;;;;63.77;61.33;;;;;;;18.36;56.26;97944.50;5038725;27;102924;-67
2023/10/22 06:35:14;;;;;;;56.92;54.67;;;;;;;18.30;57.39;97953.28;5035666;27;104725;-67
2023/10/22 06:37:43;;;;;;;77.23;74.43;;;;;;;18.87;55.96;97956.34;5057703;27;103478;-67
2023/10/22 06:40:12;;;;;;;91.40;88.05;;;;;;;19.18;55.13;97953.56;5056556;27;103251;-68
2023/10/22 06:42:41;;;;;;;74.67;71.87;;;;;;;18.80;55.45;97961.63;5038783;27;103460;-67
2023/10/22 06:45:10;;;;;;;91.50;88.18;;;;;;;19.30;55.00;97960.13;5060129;27;102731;-67
2023/10/22 06:47:38;;;;;;;117.70;113.40;;;;;;;19.66;54.00;97963.78;5039399;27;104622;-67
2023/10/22 06:50:09;;;;;;;73.65;70.95;;;;;;;19.43;54.80;97963.88;5059064;27;102674;-68
2023/10/22 06:52:39;;;;;;;99.00;95.37;;;;;;;19.59;53.71;97962.88;5057875;27;102952;-63
2023/10/22 06:55:09;;;;;;;99.57;95.88;;;;;;;19.32;53.67;97966.97;5039876;27;102958;-62
2023/10/22 06:57:38;;;;;;;96.50;92.72;;;;;;;19.25;53.96;97973.25;5038977;27;104083;-64
2023/10/22 07:00:09;;;;;;;70.47;67.57;;;;;;;18.65;56.42;97974.09;5058454;27;103307;-63
2023/10/22 07:02:39;;;;;;;78.72;75.63;;;;;;;18.97;55.57;97968.50;5040444;27;102830;-63
2023/10/22 07:05:10;;;;;;;84.88;81.63;;;;;;;19.18;54.73;97964.28;5057351;27;102686;-63
2023/10/22 07:07:42;;;;;;;97.88;94.15;;;;;;;19.40;53.49;97963.41;5039176;27;104529;-64
2023/10/22 07:10:11;;;;;;;108.95;104.85;;;;;;;19.21;53.92;97969.25;5039272;27;103244;-63
2023/10/22 07:12:39;;;;;;;108.40;104.35;;;;;;;19.72;53.23;97971.09;5052810;27;102820;-63
2023/10/22 07:15:09;;;;;;;96.78;93.20;;;;;;;19.49;53.17;97970.34;5057490;27;104005;-63
2023/10/22 07:17:37;;;;;;;103.20;99.30;;;;;;;19.67;52.59;97970.81;5056614;27;103575;-64
2023/10/22 07:20:07;;;;;;;98.47;94.70;;;;;;;19.85;52.52;97984.66;5056434;27;103819;-64
2023/10/22 07:22:35;;;;;;;103.13;99.13;;;;;;;19.75;52.27;97984.13;5060207;27;102928;-64
2023/10/22 07:25:06;;;;;;;110.90;106.82;;;;;;;20.71;51.10;97990.03;5039922;27;103954;-64
2023/10/22 07:27:34;;;;;;;111.95;107.75;;;;;;;20.51;50.79;97998.88;5058821;27;104267;-68
2023/10/22 07:30:03;;;;;;;115.72;111.30;;;;;;;20.95;49.65;97986.09;5058198;27;102660;-69
2023/10/22 07:32:31;;;;;;;112.07;107.83;;;;;;;20.68;50.21;97997.63;5057997;27;102709;-68
2023/10/22 07:34:59;;;;;;;123.53;119.00;;;;;;;21.09;48.94;98001.34;5041672;27;102706;-68
2023/10/22 07:37:27;;;;;;;111.37;107.00;;;;;;;21.04;49.47;98002.91;5060735;27;104306;-69
2023/10/22 07:39:55;;;;;;;143.83;138.73;;;;;;;20.96;48.76;98009.25;5038132;27;104701;-68
2023/10/22 07:42:26;;;;;;;130.88;125.97;;;;;;;20.88;49.38;98008.56;5053547;27;102659;-68
2023/10/22 07:44:54;;;;;;;143.03;137.90;;;;;;;21.72;47.92;98004.91;5055362;27;102744;-67
2023/10/22 07:47:22;;;;;;;146.30;140.97;;;;;;;21.84;47.15;98004.16;5036848;27;104289;-68
2023/10/22 07:49:52;;;;;;;134.70;129.77;;;;;;;21.67;48.04;98010.84;5053987;27;103824;-68
2023/10/22 07:52:20;;;;;;;140.45;135.07;;;;;;;21.21;47.90;98009.72;5054344;27;102627;-68
2023/10/22 07:54:52;;;;;;;147.55;141.93;;;;;;;21.51;47.40;98016.56;5056814;27;103666;-68
2023/10/22 07:57:20;;;;;;;140.77;135.63;;;;;;;21.80;47.12;98021.72;5055898;27;103230;-68
2023/10/22 07:59:49;;;;;;;134.07;129.07;;;;;;;21.33;48.44;98032.34;5056403;27;103058;-68
2023/10/22 08:02:18;;;;;;;149.10;143.60;;;;;;;21.34;47.44;98024.06;5055189;27;102691;-68
2023/10/22 08:04:46;;;;;;;143.33;138.13;;;;;;;22.24;46.10;98029.41;5038754;27;104159;-68
2023/10/22 08:07:17;;;;;;;153.53;147.80;;;;;;;22.15;46.29;98024.38;5034273;27;104380;-69
2023/10/22 08:09:46;;;;;;;147.45;142.02;;;;;;;21.72;46.20;98024.56;5061279;27;103393;-69
2023/10/22 08:12:14;;;;;;;135.63;130.63;;;;;;;21.74;46.61;98033.25;5039036;27;103194;-68
2023/10/22 08:14:46;;;;;;;142.98;137.55;;;;;;;22.42;45.56;98032.41;5058639;27;104048;-70
2023/10/22 08:17:15;;;;;;;148.60;143.17;;;;;;;22.76;44.65;98033.34;5062158;27;103339;-69
2023/10/22 08:19:44;;;;;;;121.45;116.93;;;;;;;22.41;45.54;98036.09;5037282;27;103194;-68
2023/10/22 08:22:12;;;;;;;143.13;137.80;;;;;;;23.33;44.43;98030.91;5057065;27;102695;-68
2023/10/22 08:24:40;;;;;;;147.73;142.32;;;;;;;23.19;43.92;98031.94;5056347;27;104081;-68
2023/10/22 08:27:08;;;;;;;145.93;140.57;;;;;;;23.53;43.16;98037.16;5056836;27;103356;-68
2023/10/22 08:29:38;;;;;;;132.02;127.13;;;;;;;23.34;43.15;98032.59;5056605;27;103292;-68
2023/10/22 08:32:06;;;;;;;153.20;147.60;;;;;;;23.18;43.72;98037.56;5046664;27;103152;-69
2023/10/22 08:34:36;;;;;;;145.63;140.23;;;;;;;23.74;42.92;98043.38;5054378;27;103143;-68
2023/10/22 08:37:05;;;;;;;148.20;142.70;;;;;;;24.01;42.36;98055.75;5054139;27;103285;-67
2023/10/22 08:39:33;;;;;;;147.53;142.03;;;;;;;23.54;42.21;98044.22;5038382;27;104318;-68
2023/10/22 08:42:09;;;;;;;150.87;145.37;;;;;;;23.98;41.89;98050.78;5035417;27;103400;-64
2023/10/22 08:44:45;;;;;;;155.63;149.63;;;;;;;23.42;42.40;98050.44;5033300;27;103116;-64
2023/10/22 08:47:16;;;;;;;155.95;150.13;;;;;;;23.76;41.71;98058.31;5052110;27;103271;-64
2023/10/22 08:49:49;;;;;;;179.52;173.02;;;;;;;24.61;41.27;98052.69;5050618;27;103333;-64
2023/10/22 08:52:17;;;;;;;144.10;138.60;;;;;;;23.24;41.73;98064.53;5038456;27;103095;-64
2023/10/22 08:54:46;;;;;;;153.53;147.73;;;;;;;24.00;41.98;98059.53;5050636;27;102979;-65
2023/10/22 08:57:14;;;;;;;168.70;162.33;;;;;;;24.75;39.93;98064.25;5051280;27;103967;-63
2023/10/22 08:59:44;;;;;;;174.07;167.60;;;;;;;23.67;41.62;98065.78;5039384;27;103163;-63
2023/10/22 09:02:14;;;;;;;164.18;158.10;;;;;;;24.01;41.10;98066.56;5039930;27;102715;-64
2023/10/22 09:04:42;;;;;;;173.07;166.57;;;;;;;24.07;41.62;98066.56;5055119;27;104262;-63
2023/10/22 09:07:12;;;;;;;157.73;151.95;;;;;;;23.67;41.03;98071.16;5059770;27;103258;-62
2023/10/22 09:09:41;;;;;;;165.38;159.18;;;;;;;24.18;41.14;98074.03;5055666;27;103300;-64
2023/10/22 09:12:10;;;;;;;164.82;158.75;;;;;;;23.88;41.13;98074.69;5056961;27;102748;-64
2023/10/22 09:14:38;;;;;;;160.93;154.93;;;;;;;24.30;40.69;98068.81;5061832;27;104097;-64
2023/10/22 09:17:16;;;;;;;163.75;157.68;;;;;;;23.34;41.63;98067.63;5058577;27;104130;-70
2023/10/22 09:19:48;;;;;;;165.23;159.13;;;;;;;24.27;40.81;98073.78;5056985;27;103212;-64
2023/10/22 09:22:26;;;;;;;176.20;169.68;;;;;;;24.64;40.14;98073.03;5041081;27;102830;-69
2023/10/22 09:24:56;;;;;;;160.65;154.32;;;;;;;24.47;41.03;98071.84;5060517;27;102813;-70
2023/10/22 09:27:25;;;;;;;193.35;186.15;;;;;;;25.14;39.59;98074.84;5055514;27;104022;-71
2023/10/22 09:29:54;;;;;;;206.10;198.52;;;;;;;24.70;40.66;98067.59;5058556;27;103392;-65
2023/10/22 09:32:23;;;;;;;191.85;184.77;;;;;;;24.09;40.93;98074.41;5052030;27;102775;-65
2023/10/22 09:34:52;;;;;;;187.88;181.00;;;;;;;23.86;40.82;98074.88;5058999;27;103999;-65
2023/10/22 09:37:20;;;;;;;205.40;197.85;;;;;;;24.11;40.15;98067.00;5056079;27;103300;-65
2023/10/22 09:39:49;;;;;;;172.18;165.82;;;;;;;24.04;40.51;98072.38;5058288;27;103200;-65
2023/10/22 09:42:18;;;;;;;210.77;203.07;;;;;;;24.35;40.14;98069.00;5040211;27;102753;-64
2023/10/22 09:44:47;;;;;;;195.73;188.65;;;;;;;23.92;40.68;98067.81;5058758;27;102676;-64
2023/10/22 09:47:21;;;;;;;274.60;264.83;;;;;;;25.51;39.05;98064.22;5054546;27;103297;-69
2023/10/22 09:49:52;;;;;;;254.27;245.05;;;;;;;25.42;39.32;98071.75;5035501;27;102803;-70
2023/10/22 09:52:23;;;;;;;251.07;242.07;;;;;;;24.48;39.76;98066.22;5055557;27;103109;-70
2023/10/22 09:54:55;;;;;;;179.77;173.17;;;;;;;24.42;40.34;98069.78;5037512;27;103926;-69
2023/10/22 09:57:28;;;;;;;192.07;185.07;;;;;;;24.56;39.96;98071.38;5038388;27;102994;-70
2023/10/22 10:00:01;;;;;;;200.07;192.80;;;;;;;24.36;40.08;98081.44;5059272;27;103280;-70
2023/10/22 10:02:34;;;;;;;178.07;171.33;;;;;;;24.32;40.85;98085.59;5053193;27;103138;-71
2023/10/22 10:05:04;;;;;;;214.68;206.88;;;;;;;24.42;40.45;98075.19;5038561;27;104047;-71
2023/10/22 10:07:32;;;;;;;275.33;265.58;;;;;;;25.20;39.05;98083.97;5057167;27;103964;-71
2023/10/22 10:10:05;;;;;;;308.75;297.77;;;;;;;25.26;39.07;98077.69;5059007;27;103161;-71
2023/10/22 10:12:36;;;;;;;244.18;235.27;;;;;;;24.62;39.73;98078.63;5055660;27;102703;-71
2023/10/22 10:15:06;;;;;;;269.40;259.58;;;;;;;23.72;40.58;98094.00;5051117;27;102697;-70
2023/10/22 10:17:52;;;;;;;234.07;225.70;;;;;;;24.00;39.95;98079.22;5057683;27;103690;-71
2023/10/22 10:20:26;;;;;;;218.70;210.88;;;;;;;24.46;40.39;98081.81;5053427;27;103178;-65
2023/10/22 10:23:06;;;;;;;181.00;174.40;;;;;;;23.76;40.71;98087.97;5056867;27;103098;-65
2023/10/22 10:25:38;;;;;;;241.83;233.20;;;;;;;24.69;39.82;98079.44;5056561;27;104155;-65
2023/10/22 10:28:08;;;;;;;250.98;241.93;;;;;;;24.30;40.36;98084.16;5056808;27;103350;-65
2023/10/22 10:30:38;;;;;;;308.05;297.05;;;;;;;25.16;39.27;98077.31;5053678;27;103195;-65
2023/10/22 10:33:07;;;;;;;301.50;290.85;;;;;;;24.32;39.50;98085.59;5037227;27;102787;-64
2023/10/22 10:35:46;;;;;;;338.08;325.83;;;;;;;25.30;38.29;98081.59;5055534;27;102819;-65
2023/10/22 10:38:24;;;;;;;285.92;275.75;;;;;;;25.53;38.93;98081.03;5056678;27;103922;-65
2023/10/22 10:40:55;;;;;;;343.38;330.83;;;;;;;25.03;39.14;98090.94;5056094;27;103290;-70
2023/10/22 10:44:01;;;;;;;354.27;341.60;;;;;;;24.65;38.93;98078.19;5056216;27;102670;-71
2023/10/22 10:46:30;;;;;;;379.33;365.23;;;;;;;25.61;38.40;98076.19;5038982;27;103883;-71
2023/10/22 10:48:58;;;;;;;423.35;407.58;;;;;;;25.89;37.42;98076.56;5055125;27;103124;-70
2023/10/22 10:51:26;;;;;;;404.25;389.42;;;;;;;24.62;38.47;98070.53;5054661;27;103070;-70
2023/10/22 10:54:18;;;;;;;429.13;413.05;;;;;;;25.22;37.82;98071.06;5055958;27;103244;-70
2023/10/22 10:56:53;;;;;;;442.05;425.33;;;;;;;25.39;37.57;98072.19;5054138;27;103957;-71
2023/10/22 10:59:31;;;;;;;480.13;461.80;;;;;;;26.37;37.00;98075.88;5033992;27;103306;-70
2023/10/22 11:02:01;;;;;;;533.77;512.53;;;;;;;26.60;36.62;98064.34;5034116;27;103947;-65
2023/10/22 11:04:30;;;;;;;545.67;524.10;;;;;;;26.24;36.80;98066.03;5056415;27;102938;-65
2023/10/22 11:07:00;;;;;;;606.80;581.33;;;;;;;27.04;35.46;98067.53;5054742;27;103905;-65
2023/10/22 11:09:33;;;;;;;631.33;604.97;;;;;;;26.63;35.73;98059.31;5055015;27;103455;-65
2023/10/22 11:12:04;;;;;;;635.67;609.10;;;;;;;26.68;35.19;98067.56;5035946;27;104256;-65
2023/10/22 11:14:33;;;;;;;617.97;592.17;;;;;;;26.39;36.10;98065.63;5055045;27;102938;-66
2023/10/22 11:17:02;;;;;;;579.47;555.55;;;;;;;25.27;37.09;98068.50;5051568;27;102676;-70
2023/10/22 11:19:31;;;;;;;602.92;577.55;;;;;;;25.92;35.86;98073.41;5033614;27;104226;-71
2023/10/22 11:21:59;;;;;;;652.72;625.17;;;;;;;26.42;34.74;98073.31;5038390;27;103228;-71
2023/10/22 11:24:30;;;;;;;607.50;581.78;;;;;;;25.90;36.08;98077.38;5055409;27;102648;-68
2023/10/22 11:27:00;;;;;;;633.30;606.13;;;;;;;26.29;35.63;98073.47;5034169;27;103049;-67